Time;durP1;ratioP1;P1;durP2;ratioP2;P2;SDS_P1;SDS_P2;PMS_P1;PMS_P2;Temp;Humidity;BMP_temperature;BMP_pressure;BME280_temperature;BME280_humidity;BME280_pressure;Samples;Min_cycle;Max_cycle;Signal;HPM_P1;HPM_P2
2021/10/20 00:00:09;;;;;;;8.53;7.60;;;9.40;99.90;;;;;;5049209;28;21098;-66
2021/10/20 00:02:36;;;;;;;14.70;7.90;;;9.40;99.90;;;;;;5049238;28;20458;-66
2021/10/20 00:05:03;;;;;;;10.90;8.03;;;9.40;99.90;;;;;;5052095;28;20842;-66
2021/10/20 00:07:30;;;;;;;10.17;9.00;;;9.30;99.90;;;;;;5052249;28;20448;-66
2021/10/20 00:09:56;;;;;;;8.40;7.50;;;9.30;99.90;;;;;;5053166;28;20450;-66
2021/10/20 00:12:23;;;;;;;10.20;8.10;;;9.30;99.90;;;;;;5052632;28;20444;-66
2021/10/20 00:14:52;;;;;;;8.50;7.50;;;9.30;99.90;;;;;;5052539;28;20467;-66
2021/10/20 00:17:19;;;;;;;10.67;8.60;;;9.30;99.90;;;;;;5052343;28;20543;-66
2021/10/20 00:19:48;;;;;;;8.43;7.63;;;9.30;99.90;;;;;;5052540;28;20933;-66
2021/10/20 00:22:15;;;;;;;10.00;9.00;;;9.20;99.90;;;;;;5052606;28;20447;-66
2021/10/20 00:24:42;;;;;;;10.27;9.27;;;9.20;99.90;;;;;;5052549;28;20563;-66
2021/10/20 00:27:09;;;;;;;10.57;8.87;;;9.20;99.90;;;;;;5052661;28;20455;-66
2021/10/20 00:29:36;;;;;;;10.13;8.87;;;9.20;99.90;;;;;;5052411;28;21141;-66
2021/10/20 00:32:05;;;;;;;10.43;9.10;;;9.20;99.90;;;;;;5052734;28;20444;-66
2021/10/20 00:34:32;;;;;;;12.30;9.50;;;9.30;99.90;;;;;;5052495;28;20463;-66
2021/10/20 00:36:59;;;;;;;10.90;8.83;;;9.30;99.90;;;;;;5052429;28;20479;-66
2021/10/20 00:39:26;;;;;;;12.20;9.50;;;9.20;99.90;;;;;;5052626;28;20822;-66
2021/10/20 00:41:54;;;;;;;11.87;10.20;;;9.20;99.90;;;;;;5052707;28;20444;-66
2021/10/20 00:44:20;;;;;;;11.03;9.20;;;9.20;99.90;;;;;;5052277;28;20483;-66
2021/10/20 00:46:47;;;;;;;11.87;9.50;;;9.20;99.90;;;;;;5051914;28;20452;-66
2021/10/20 00:49:16;;;;;;;13.03;9.80;;;9.20;99.90;;;;;;5052347;28;20531;-66
2021/10/20 00:51:42;;;;;;;11.47;10.27;;;9.30;99.90;;;;;;5052205;28;20452;-66
2021/10/20 00:54:09;;;;;;;10.60;9.50;;;9.20;99.90;;;;;;5052179;28;20842;-66
2021/10/20 00:56:37;;;;;;;9.80;8.80;;;9.20;99.90;;;;;;5051546;28;20449;-66
2021/10/20 00:59:04;;;;;;;13.97;8.90;;;9.30;99.90;;;;;;5051928;28;20484;-66
2021/10/20 01:01:31;;;;;;;11.53;9.27;;;9.30;99.90;;;;;;5052026;28;20452;-66
2021/10/20 01:03:57;;;;;;;10.33;9.13;;;9.30;99.90;;;;;;5051877;28;20467;-66
2021/10/20 01:06:26;;;;;;;11.77;9.53;;;9.40;99.90;;;;;;5051448;28;20829;-66
2021/10/20 01:08:52;;;;;;;9.77;8.10;;;9.30;99.90;;;;;;5051557;28;20455;-66
2021/10/20 01:11:20;;;;;;;13.00;9.50;;;9.30;99.90;;;;;;5051486;28;20452;-66
2021/10/20 01:13:46;;;;;;;10.80;8.80;;;9.20;99.90;;;;;;5051633;28;20471;-66
2021/10/20 01:16:13;;;;;;;11.60;8.37;;;9.20;99.90;;;;;;5050969;28;20448;-66
2021/10/20 01:18:40;;;;;;;12.50;10.47;;;9.20;99.90;;;;;;5051199;28;20479;-66
2021/10/20 01:21:07;;;;;;;10.20;9.20;;;9.30;99.90;;;;;;5051630;28;20820;-66
2021/10/20 01:23:36;;;;;;;10.83;8.70;;;9.20;99.90;;;;;;5051404;28;20472;-66
2021/10/20 01:26:03;;;;;;;11.90;9.40;;;9.30;99.90;;;;;;5051756;28;20456;-66
2021/10/20 01:28:30;;;;;;;13.10;8.93;;;9.20;99.90;;;;;;5050972;28;20441;-66
2021/10/20 01:30:56;;;;;;;10.50;8.53;;;9.20;99.90;;;;;;5051359;28;20463;-66
2021/10/20 01:33:24;;;;;;;11.53;8.40;;;9.20;99.90;;;;;;5050941;28;20454;-66
2021/10/20 01:35:50;;;;;;;10.03;8.20;;;9.10;99.90;;;;;;5051355;28;21229;-66
2021/10/20 01:38:17;;;;;;;10.13;9.07;;;9.10;99.90;;;;;;5050521;28;20482;-66
2021/10/20 01:40:45;;;;;;;9.77;8.27;;;9.00;99.90;;;;;;5051488;28;20455;-66
2021/10/20 01:43:12;;;;;;;9.03;7.50;;;9.00;99.90;;;;;;5050804;28;20462;-66
2021/10/20 01:45:39;;;;;;;11.13;9.80;;;9.00;99.90;;;;;;5051143;28;20425;-66
2021/10/20 01:48:07;;;;;;;11.43;8.60;;;8.90;99.90;;;;;;5051079;28;20790;-66
2021/10/20 01:50:34;;;;;;;10.17;8.10;;;9.00;99.90;;;;;;5050846;28;20454;-66
2021/10/20 01:53:00;;;;;;;11.37;8.80;;;8.90;99.90;;;;;;5050768;28;20454;-66
2021/10/20 01:55:27;;;;;;;12.60;9.57;;;9.00;99.90;;;;;;5050765;28;20467;-66
2021/10/20 01:57:56;;;;;;;12.20;9.83;;;9.00;99.90;;;;;;5050417;28;20476;-66
2021/10/20 02:00:22;;;;;;;10.33;9.30;;;9.00;99.90;;;;;;5050842;28;20921;-66
2021/10/20 02:02:49;;;;;;;10.60;9.50;;;9.00;99.90;;;;;;5051009;28;20459;-66
2021/10/20 02:05:16;;;;;;;11.47;9.70;;;9.00;99.90;;;;;;5050541;28;20468;-66
2021/10/20 02:07:43;;;;;;;11.73;10.53;;;9.00;99.90;;;;;;5050477;28;20444;-66
2021/10/20 02:10:12;;;;;;;12.60;10.00;;;9.00;99.90;;;;;;5050682;28;20451;-66
2021/10/20 02:12:40;;;;;;;11.57;10.20;;;8.90;99.90;;;;;;5050403;28;20463;-66
2021/10/20 02:15:09;;;;;;;11.03;9.40;;;8.90;99.90;;;;;;5050077;28;21008;-66
2021/10/20 02:17:36;;;;;;;11.83;9.77;;;8.90;99.90;;;;;;5050379;28;20476;-66
2021/10/20 02:20:07;;;;;;;9.57;8.43;;;8.90;99.90;;;;;;5050601;28;20969;-67
2021/10/20 02:22:35;;;;;;;11.13;8.93;;;8.90;99.90;;;;;;5050258;28;20451;-67
2021/10/20 02:25:02;;;;;;;18.43;8.90;;;8.80;99.90;;;;;;5050428;28;20471;-67
2021/10/20 02:27:28;;;;;;;10.63;8.53;;;8.70;99.90;;;;;;5049518;28;20444;-67
2021/10/20 02:29:55;;;;;;;9.23;7.17;;;8.70;99.90;;;;;;5050404;28;20466;-67
2021/10/20 02:32:23;;;;;;;11.13;8.17;;;8.60;99.90;;;;;;5050118;28;20456;-67
2021/10/20 02:34:50;;;;;;;8.73;7.83;;;8.60;99.90;;;;;;5050059;28;20471;-67
2021/10/20 02:37:17;;;;;;;10.33;8.00;;;8.60;99.90;;;;;;5049580;28;20448;-67
2021/10/20 02:39:44;;;;;;;9.93;8.63;;;8.50;99.90;;;;;;5050068;28;20444;-67
2021/10/20 02:42:11;;;;;;;10.67;8.63;;;8.50;99.90;;;;;;5050022;28;20961;-67
2021/10/20 02:44:38;;;;;;;10.37;9.27;;;8.40;99.90;;;;;;5050038;28;20468;-67
2021/10/20 02:47:06;;;;;;;9.30;7.80;;;8.40;99.90;;;;;;5049736;28;20478;-67
2021/10/20 02:49:34;;;;;;;15.70;8.47;;;8.40;99.90;;;;;;5050116;28;20455;-67
2021/10/20 02:52:01;;;;;;;15.83;8.90;;;8.40;99.90;;;;;;5049871;28;20539;-67
2021/10/20 02:54:28;;;;;;;10.27;8.43;;;8.40;99.90;;;;;;5049762;28;20475;-67
2021/10/20 02:56:55;;;;;;;9.07;7.20;;;8.40;99.90;;;;;;5049944;28;20444;-67
2021/10/20 02:59:22;;;;;;;10.90;8.80;;;8.40;99.90;;;;;;5049998;28;20479;-67
2021/10/20 03:01:49;;;;;;;9.80;7.20;;;8.30;99.90;;;;;;5050154;28;20448;-67
2021/10/20 03:04:16;;;;;;;8.60;7.70;;;8.30;99.90;;;;;;5050127;28;20491;-65
2021/10/20 03:06:44;;;;;;;8.40;7.57;;;8.30;99.90;;;;;;5049627;28;20448;-65
2021/10/20 03:09:11;;;;;;;8.60;7.70;;;8.30;99.90;;;;;;5050162;28;20446;-65
2021/10/20 03:11:38;;;;;;;9.70;7.27;;;8.40;99.90;;;;;;5050458;28;20470;-65
2021/10/20 03:14:05;;;;;;;8.00;7.13;;;8.40;99.90;;;;;;5049948;28;20939;-67
2021/10/20 03:16:31;;;;;;;10.13;7.27;;;8.30;99.90;;;;;;5049981;28;20447;-64
2021/10/20 03:18:58;;;;;;;8.53;7.20;;;8.20;99.90;;;;;;5049959;28;20843;-66
2021/10/20 03:21:25;;;;;;;8.10;7.30;;;8.20;99.90;;;;;;5049957;28;20444;-66
2021/10/20 03:23:53;;;;;;;7.70;6.63;;;8.10;99.90;;;;;;5050048;28;20506;-66
2021/10/20 03:26:20;;;;;;;8.30;6.30;;;8.10;99.90;;;;;;5049768;28;20450;-66
2021/10/20 03:28:47;;;;;;;8.27;7.10;;;8.10;99.90;;;;;;5049879;28;20473;-66
2021/10/20 03:31:14;;;;;;;7.30;6.60;;;8.10;99.90;;;;;;5049762;28;20447;-66
2021/10/20 03:33:40;;;;;;;8.50;7.40;;;8.00;99.90;;;;;;5049650;28;20468;-67
2021/10/20 03:36:07;;;;;;;9.50;8.60;;;8.00;99.90;;;;;;5049563;28;20970;-66
2021/10/20 03:38:34;;;;;;;10.90;9.80;;;8.10;99.90;;;;;;5052114;28;20599;-67
2021/10/20 03:41:03;;;;;;;13.40;10.20;;;8.10;99.90;;;;;;5053611;28;21025;-66
2021/10/20 03:43:30;;;;;;;11.83;10.33;;;8.20;99.90;;;;;;5053362;28;20448;-66
2021/10/20 03:45:57;;;;;;;9.70;8.00;;;8.20;99.90;;;;;;5053360;28;21021;-66
2021/10/20 03:48:24;;;;;;;10.60;8.70;;;8.30;99.90;;;;;;5053195;28;20826;-66
2021/10/20 03:50:51;;;;;;;13.17;8.63;;;8.30;99.90;;;;;;5052758;28;20447;-66
2021/10/20 03:53:18;;;;;;;10.17;8.20;;;8.20;99.90;;;;;;5051048;28;20948;-66
2021/10/20 03:55:44;;;;;;;10.27;8.10;;;8.20;99.90;;;;;;5052936;28;20448;-66
2021/10/20 03:58:13;;;;;;;10.57;8.83;;;8.20;99.90;;;;;;5052460;28;20483;-66
2021/10/20 04:00:40;;;;;;;8.60;7.63;;;8.20;99.90;;;;;;5052914;28;20855;-66
2021/10/20 04:03:07;;;;;;;8.73;7.73;;;8.20;99.90;;;;;;5052858;28;20450;-66
2021/10/20 04:05:33;;;;;;;8.60;7.80;;;8.10;99.90;;;;;;5053090;28;20842;-66
2021/10/20 04:08:00;;;;;;;10.83;9.20;;;8.20;99.90;;;;;;5052658;28;21022;-66
2021/10/20 04:10:27;;;;;;;11.40;8.60;;;8.00;99.90;;;;;;5053194;28;20460;-66
2021/10/20 04:12:55;;;;;;;9.73;7.77;;;8.00;99.90;;;;;;5052815;28;20520;-66
2021/10/20 04:15:25;;;;;;;10.87;8.70;;;7.90;99.90;;;;;;5052688;28;21020;-66
2021/10/20 04:17:52;;;;;;;11.77;7.53;;;7.90;99.90;;;;;;5052638;28;20478;-66
2021/10/20 04:20:21;;;;;;;10.27;7.43;;;7.90;99.90;;;;;;5052675;28;20450;-66
2021/10/20 04:22:49;;;;;;;10.80;7.93;;;7.80;99.90;;;;;;5052831;28;20444;-66
2021/10/20 04:25:17;;;;;;;8.80;7.83;;;7.80;99.90;;;;;;5052587;28;20467;-66
2021/10/20 04:27:44;;;;;;;9.93;7.97;;;7.70;99.90;;;;;;5052224;28;20446;-66
2021/10/20 04:30:13;;;;;;;9.80;8.83;;;7.80;99.90;;;;;;5052327;28;20436;-66
2021/10/20 04:32:42;;;;;;;11.67;8.30;;;7.70;99.90;;;;;;5052850;28;20440;-66
2021/10/20 04:35:10;;;;;;;9.47;8.53;;;7.70;99.90;;;;;;5052386;28;20482;-66
2021/10/20 04:37:37;;;;;;;11.03;8.43;;;7.60;99.90;;;;;;5052041;28;20547;-67
2021/10/20 04:40:06;;;;;;;10.83;8.67;;;7.60;99.90;;;;;;5052121;28;20479;-66
2021/10/20 04:42:34;;;;;;;12.00;10.10;;;7.60;99.90;;;;;;5051893;28;20789;-66
2021/10/20 04:45:02;;;;;;;10.83;8.67;;;7.70;99.90;;;;;;5052254;28;20846;-65
2021/10/20 04:47:29;;;;;;;9.37;7.77;;;7.90;99.90;;;;;;5052122;28;20440;-66
2021/10/20 04:49:57;;;;;;;10.17;8.53;;;7.90;99.90;;;;;;5051306;28;20436;-65
2021/10/20 04:52:24;;;;;;;11.17;9.20;;;8.00;99.90;;;;;;5052102;28;20448;-66
2021/10/20 04:54:52;;;;;;;11.40;8.80;;;8.00;99.90;;;;;;5052092;28;20467;-66
2021/10/20 04:57:19;;;;;;;9.27;8.13;;;8.00;99.90;;;;;;5051888;28;20532;-67
2021/10/20 04:59:46;;;;;;;10.70;8.60;;;8.00;99.90;;;;;;5052210;28;20475;-67
2021/10/20 05:02:13;;;;;;;10.97;8.30;;;7.90;99.90;;;;;;5049472;28;20933;-66
2021/10/20 05:04:40;;;;;;;12.63;8.97;;;8.00;99.90;;;;;;5051748;28;20547;-66
2021/10/20 05:07:10;;;;;;;10.50;8.53;;;8.00;99.90;;;;;;5041800;28;20571;-66
2021/10/20 05:09:37;;;;;;;9.70;8.43;;;8.00;99.90;;;;;;5041412;28;20511;-66
2021/10/20 05:12:05;;;;;;;10.37;8.20;;;8.00;99.90;;;;;;5046432;28;20436;-66
2021/10/20 05:14:32;;;;;;;10.10;8.60;;;8.00;99.90;;;;;;5048341;28;20475;-66
2021/10/20 05:16:58;;;;;;;13.73;9.50;;;8.00;99.90;;;;;;5049497;28;20454;-66
2021/10/20 05:19:25;;;;;;;10.30;9.20;;;8.00;99.90;;;;;;5047091;28;20485;-67
2021/10/20 05:21:52;;;;;;;11.27;8.77;;;8.00;99.90;;;;;;5048235;28;20896;-66
2021/10/20 05:24:20;;;;;;;10.97;8.73;;;8.10;99.90;;;;;;5048260;28;20471;-66
2021/10/20 05:26:50;;;;;;;10.90;8.20;;;8.20;99.90;;;;;;5049568;28;20448;-66
2021/10/20 05:29:17;;;;;;;11.90;9.03;;;8.20;99.90;;;;;;5051289;28;20502;-65
2021/10/20 05:31:44;;;;;;;11.73;9.30;;;8.20;99.90;;;;;;5051139;28;20450;-66
2021/10/20 05:34:10;;;;;;;10.90;8.80;;;8.20;99.90;;;;;;5050962;28;20467;-63
2021/10/20 05:36:37;;;;;;;12.07;8.93;;;8.20;99.90;;;;;;5050828;28;20447;-64
2021/10/20 05:39:05;;;;;;;12.30;9.30;;;8.10;99.90;;;;;;5051060;28;21036;-63
2021/10/20 05:41:34;;;;;;;11.37;8.90;;;8.20;99.90;;;;;;5051337;28;20452;-63
2021/10/20 05:44:00;;;;;;;11.33;9.17;;;8.20;99.90;;;;;;5051119;28;20472;-63
2021/10/20 05:46:27;;;;;;;12.00;9.27;;;8.40;99.90;;;;;;5051062;28;20452;-63
2021/10/20 05:48:54;;;;;;;13.20;9.20;;;8.50;99.90;;;;;;5050706;28;20439;-63
2021/10/20 05:51:21;;;;;;;12.33;8.50;;;8.50;99.90;;;;;;5051038;28;20531;-66
2021/10/20 05:53:48;;;;;;;10.93;8.60;;;8.50;99.90;;;;;;5050975;28;20468;-66
2021/10/20 05:56:14;;;;;;;10.23;8.70;;;8.60;99.90;;;;;;5050602;28;20451;-65
2021/10/20 05:58:43;;;;;;;12.10;10.73;;;8.70;99.90;;;;;;5050842;28;20482;-66
2021/10/20 06:01:10;;;;;;;14.00;10.27;;;8.70;99.90;;;;;;5049882;28;20440;-66
2021/10/20 06:03:37;;;;;;;11.63;9.03;;;8.80;99.90;;;;;;5050556;28;20507;-66
2021/10/20 06:06:04;;;;;;;15.23;10.27;;;8.90;99.90;;;;;;5050654;28;20454;-66
2021/10/20 06:08:31;;;;;;;18.63;10.67;;;9.00;99.90;;;;;;5050367;28;20539;-66
2021/10/20 06:10:58;;;;;;;14.03;9.50;;;9.00;99.90;;;;;;5050734;28;20454;-66
2021/10/20 06:13:25;;;;;;;14.07;9.80;;;9.10;99.90;;;;;;5050646;28;20440;-66
2021/10/20 06:15:53;;;;;;;16.83;9.67;;;9.10;99.90;;;;;;5050199;28;20444;-66
2021/10/20 06:18:20;;;;;;;14.87;10.40;;;9.20;99.90;;;;;;5050084;28;20544;-66
2021/10/20 06:20:46;;;;;;;16.63;9.90;;;9.30;99.90;;;;;;5050179;28;20486;-66
2021/10/20 06:23:13;;;;;;;11.53;8.90;;;9.30;99.90;;;;;;5050220;28;20450;-65
2021/10/20 06:25:40;;;;;;;14.53;9.23;;;9.40;99.90;;;;;;5050066;28;20960;-66
2021/10/20 06:28:07;;;;;;;13.80;10.30;;;9.30;99.90;;;;;;5050160;28;20444;-66
2021/10/20 06:30:34;;;;;;;12.57;9.80;;;9.30;99.90;;;;;;5050174;28;20436;-66
2021/10/20 06:33:02;;;;;;;11.33;9.50;;;9.20;99.90;;;;;;5050072;28;20819;-66
2021/10/20 06:35:29;;;;;;;14.20;10.27;;;9.20;99.90;;;;;;5049882;28;20991;-66
2021/10/20 06:37:56;;;;;;;12.23;8.87;;;9.20;99.90;;;;;;5050133;28;20448;-66
2021/10/20 06:40:23;;;;;;;14.03;9.70;;;9.10;99.90;;;;;;5049874;28;21037;-66
2021/10/20 06:42:50;;;;;;;9.20;8.03;;;9.10;99.90;;;;;;5050175;28;20483;-66
2021/10/20 06:45:17;;;;;;;13.03;8.03;;;9.00;99.90;;;;;;5050117;28;20464;-66
2021/10/20 06:47:44;;;;;;;12.07;9.13;;;8.90;99.90;;;;;;5049704;28;20821;-66
2021/10/20 06:50:12;;;;;;;13.50;8.50;;;8.90;99.90;;;;;;5049759;28;20523;-66
2021/10/20 06:52:39;;;;;;;10.33;7.50;;;8.90;99.90;;;;;;5049789;28;20968;-66
2021/10/20 06:55:07;;;;;;;11.37;8.40;;;8.90;99.90;;;;;;5049951;28;20463;-66
2021/10/20 06:57:34;;;;;;;9.50;7.80;;;8.90;99.90;;;;;;5049968;28;20941;-66
2021/10/20 07:00:00;;;;;;;15.23;9.13;;;8.90;99.90;;;;;;5049773;28;20482;-66
2021/10/20 07:02:27;;;;;;;12.83;8.17;;;8.90;99.90;;;;;;5049977;28;20482;-66
2021/10/20 07:04:54;;;;;;;9.43;7.60;;;8.90;99.90;;;;;;5049757;28;20480;-66
2021/10/20 07:07:22;;;;;;;8.40;7.50;;;9.00;99.90;;;;;;5049588;28;20458;-66
2021/10/20 07:09:49;;;;;;;11.43;8.53;;;9.10;99.90;;;;;;5049589;28;20535;-65
2021/10/20 07:12:16;;;;;;;8.07;7.20;;;9.20;99.90;;;;;;5050003;28;20443;-66
2021/10/20 07:14:43;;;;;;;12.77;8.43;;;9.30;99.90;;;;;;5053918;28;20475;-66
2021/10/20 07:17:10;;;;;;;10.50;8.83;;;9.50;99.90;;;;;;5053613;28;21164;-66
2021/10/20 07:19:38;;;;;;;15.30;8.80;;;9.60;99.90;;;;;;5053848;28;20571;-66
2021/10/20 07:22:05;;;;;;;11.10;8.80;;;9.80;99.90;;;;;;5054000;28;20448;-66
2021/10/20 07:24:34;;;;;;;14.80;9.77;;;10.00;99.90;;;;;;5053801;28;20472;-66
2021/10/20 07:27:01;;;;;;;14.67;9.37;;;10.10;99.90;;;;;;5053502;28;20833;-66
2021/10/20 07:29:27;;;;;;;15.10;9.80;;;10.30;99.90;;;;;;5053596;28;20673;-66
2021/10/20 07:31:54;;;;;;;19.80;8.90;;;10.50;99.90;;;;;;5054057;28;20439;-66
2021/10/20 07:34:21;;;;;;;15.50;9.80;;;10.70;99.90;;;;;;5053479;28;20490;-65
2021/10/20 07:36:48;;;;;;;14.07;8.47;;;11.00;99.90;;;;;;5053134;28;20929;-66
2021/10/20 07:39:15;;;;;;;13.37;9.07;;;11.20;99.90;;;;;;5054603;28;20566;-66
2021/10/20 07:41:44;;;;;;;10.27;8.10;;;11.40;99.90;;;;;;5054460;28;20448;-66
2021/10/20 07:44:11;;;;;;;12.57;9.03;;;11.50;99.90;;;;;;5056306;28;20479;-66
2021/10/20 07:46:38;;;;;;;13.10;8.70;;;11.60;99.90;;;;;;5052987;28;20444;-66
2021/10/20 07:49:05;;;;;;;12.60;8.03;;;11.60;99.90;;;;;;5053318;28;20444;-66
2021/10/20 07:51:32;;;;;;;14.47;7.80;;;11.70;99.90;;;;;;5053030;28;21301;-66
2021/10/20 07:53:59;;;;;;;13.10;8.43;;;11.90;99.90;;;;;;5053231;28;20499;-66
2021/10/20 07:56:32;;;;;;;9.93;7.33;;;12.20;99.90;;;;;;5052747;28;20448;-65
2021/10/20 07:59:00;;;;;;;8.00;6.87;;;12.30;99.90;;;;;;5052884;28;20455;-65
2021/10/20 08:01:27;;;;;;;10.90;7.47;;;12.50;99.90;;;;;;5052784;28;20432;-66
2021/10/20 08:03:54;;;;;;;11.10;7.30;;;12.80;99.90;;;;;;5052936;28;20467;-66
2021/10/20 08:06:21;;;;;;;9.27;6.40;;;13.10;99.90;;;;;;5052499;28;20440;-66
2021/10/20 08:08:48;;;;;;;8.00;6.70;;;13.40;99.90;;;;;;5052863;28;20464;-66
2021/10/20 08:11:15;;;;;;;13.57;7.20;;;13.70;99.90;;;;;;5052964;28;20834;-66
2021/10/20 08:13:41;;;;;;;8.00;6.67;;;13.90;99.90;;;;;;5052555;28;20468;-65
2021/10/20 08:16:10;;;;;;;8.20;6.37;;;14.10;99.90;;;;;;5052660;28;20959;-66
2021/10/20 08:18:37;;;;;;;8.47;5.70;;;14.40;99.90;;;;;;5052347;28;20446;-66
2021/10/20 08:21:04;;;;;;;10.83;6.53;;;14.60;99.90;;;;;;5052594;28;20483;-66
2021/10/20 08:23:30;;;;;;;7.20;5.80;;;14.80;99.90;;;;;;5052258;28;20444;-66
2021/10/20 08:25:57;;;;;;;7.47;5.80;;;15.10;99.90;;;;;;5051757;28;20454;-66
2021/10/20 08:28:24;;;;;;;10.70;6.40;;;15.30;99.90;;;;;;5052059;28;20451;-66
2021/10/20 08:30:51;;;;;;;8.17;5.60;;;15.60;99.90;;;;;;5052386;28;20531;-66
2021/10/20 08:33:19;;;;;;;9.77;5.53;;;15.80;99.90;;;;;;5052530;28;20679;-66
2021/10/20 08:35:46;;;;;;;8.80;6.40;;;16.10;99.90;;;;;;5052401;28;20917;-66
2021/10/20 08:38:13;;;;;;;9.03;5.80;;;16.40;99.90;;;;;;5051884;28;20539;-66
2021/10/20 08:40:45;;;;;;;6.43;5.40;;;16.50;99.90;;;;;;5052423;28;20479;-66
2021/10/20 08:43:12;;;;;;;7.70;5.93;;;16.80;99.90;;;;;;5052220;28;20459;-66
2021/10/20 08:45:39;;;;;;;7.67;5.37;;;16.90;99.90;;;;;;5052314;28;20448;-66
2021/10/20 08:48:06;;;;;;;7.33;6.10;;;16.80;99.90;;;;;;5051738;28;20454;-66
2021/10/20 08:50:37;;;;;;;6.90;5.53;;;17.00;99.90;;;;;;5052156;28;20810;-66
2021/10/20 08:53:05;;;;;;;10.23;5.70;;;17.10;99.90;;;;;;5052227;28;20444;-66
2021/10/20 08:55:32;;;;;;;8.20;4.80;;;17.30;99.90;;;;;;5051820;28;20460;-66
2021/10/20 08:58:00;;;;;;;5.80;4.80;;;17.60;99.90;;;;;;5051494;28;20479;-67
2021/10/20 09:00:28;;;;;;;5.90;4.70;;;17.80;99.90;;;;;;5052071;28;20475;-66
2021/10/20 09:02:55;;;;;;;8.60;5.47;;;18.00;99.90;;;;;;5052116;28;20444;-66
2021/10/20 09:05:24;;;;;;;5.37;4.60;;;18.00;99.90;;;;;;5052020;28;21305;-66
2021/10/20 09:07:54;;;;;;;6.30;4.63;;;18.00;99.90;;;;;;5051538;28;20540;-66
2021/10/20 09:10:22;;;;;;;8.20;5.10;;;17.90;99.90;;;;;;5051875;28;20440;-68
2021/10/20 09:12:49;;;;;;;6.30;4.90;;;18.10;99.90;;;;;;5052088;28;20452;-66
2021/10/20 09:15:19;;;;;;;8.27;4.93;;;18.40;99.90;;;;;;5051527;28;20555;-66
2021/10/20 09:17:48;;;;;;;6.73;4.90;;;18.60;99.90;;;;;;5051226;28;20926;-66
2021/10/20 09:20:21;;;;;;;6.80;4.53;;;18.90;99.90;;;;;;5051294;28;21040;-66
2021/10/20 09:23:05;;;;;;;6.53;4.17;;;19.10;99.90;;;;;;5051490;28;20531;-66
2021/10/20 09:25:35;;;;;;;7.07;4.97;;;19.30;99.90;;;;;;5051364;28;21052;-66
2021/10/20 09:28:02;;;;;;;8.50;4.73;;;19.40;99.90;;;;;;5051220;28;20439;-66
2021/10/20 09:30:29;;;;;;;7.87;4.30;;;19.50;99.90;;;;;;5051324;28;20441;-66
2021/10/20 09:32:58;;;;;;;5.90;3.57;;;19.60;99.90;;;;;;5051098;28;20535;-67
2021/10/20 09:35:28;;;;;;;10.17;4.10;;;19.70;99.90;;;;;;5051076;28;20464;-66
2021/10/20 09:37:58;;;;;;;5.13;3.80;;;19.80;99.90;;;;;;5051003;28;20444;-66
2021/10/20 09:40:32;;;;;;;5.83;3.70;;;19.80;99.90;;;;;;5050977;28;20486;-66
2021/10/20 09:42:59;;;;;;;6.80;5.10;;;19.80;99.90;;;;;;5050985;28;20550;-66
2021/10/20 09:45:26;;;;;;;4.10;3.10;;;20.00;99.90;;;;;;5051065;28;20468;-66
2021/10/20 09:47:55;;;;;;;4.20;3.30;;;20.10;99.90;;;;;;5050843;28;20841;-66
2021/10/20 09:50:22;;;;;;;5.47;3.43;;;20.30;99.90;;;;;;5051235;28;20502;-66
2021/10/20 09:52:51;;;;;;;6.00;3.57;;;20.40;99.90;;;;;;5051209;28;20833;-67
2021/10/20 09:55:28;;;;;;;5.40;3.10;;;20.70;99.90;;;;;;5050522;28;21017;-67
2021/10/20 09:58:00;;;;;;;6.90;5.20;;;20.90;99.90;;;;;;5050397;28;20442;-66
2021/10/20 10:00:28;;;;;;;4.47;3.27;;;21.40;99.90;;;;;;5050601;28;20494;-67
2021/10/20 10:02:56;;;;;;;4.23;3.30;;;21.80;99.90;;;;;;5050969;28;20555;-67
2021/10/20 10:05:23;;;;;;;6.33;3.17;;;22.30;99.90;;;;;;5050568;28;20573;-67
2021/10/20 10:07:50;;;;;;;5.70;3.10;;;22.70;99.90;;;;;;5050373;28;20516;-66
2021/10/20 10:10:17;;;;;;;5.87;3.17;;;23.00;99.70;;;;;;5050738;28;20439;-67
2021/10/20 10:12:47;;;;;;;6.37;3.17;;;23.30;98.90;;;;;;5050708;28;20475;-67
2021/10/20 10:15:17;;;;;;;5.80;2.97;;;23.50;97.60;;;;;;5050564;28;20551;-67
2021/10/20 10:17:45;;;;;;;4.03;2.90;;;23.50;97.70;;;;;;5049976;28;20454;-67
2021/10/20 10:20:14;;;;;;;5.80;3.10;;;23.60;97.80;;;;;;5050426;28;20490;-67
2021/10/20 10:22:52;;;;;;;4.27;3.10;;;24.00;98.00;;;;;;5050564;28;20478;-67
2021/10/20 10:25:31;;;;;;;5.60;3.00;;;23.80;96.70;;;;;;5050313;28;20550;-66
2021/10/20 10:28:05;;;;;;;4.63;2.97;;;23.70;97.70;;;;;;5050447;28;20451;-67
2021/10/20 10:30:33;;;;;;;6.97;3.10;;;23.60;98.30;;;;;;5050700;28;20448;-67
2021/10/20 10:33:02;;;;;;;8.70;3.30;;;23.70;96.80;;;;;;5050279;28;20454;-66
2021/10/20 10:35:34;;;;;;;4.90;2.73;;;23.70;96.20;;;;;;5050112;28;20468;-66
2021/10/20 10:38:06;;;;;;;3.70;2.80;;;23.30;97.00;;;;;;5050483;28;20436;-67
2021/10/20 10:40:33;;;;;;;3.83;2.63;;;23.20;97.80;;;;;;5050467;28;20563;-66
2021/10/20 10:43:06;;;;;;;4.03;2.70;;;23.00;97.50;;;;;;5050220;28;20462;-66
2021/10/20 10:45:34;;;;;;;7.77;3.70;;;23.10;97.80;;;;;;5049901;28;20468;-66
2021/10/20 10:48:03;;;;;;;5.60;3.07;;;23.00;97.30;;;;;;5048948;28;20470;-66
2021/10/20 10:50:41;;;;;;;9.50;3.30;;;22.90;97.50;;;;;;5050039;28;20444;-66
2021/10/20 10:53:08;;;;;;;92.27;16.03;;;23.20;97.30;;;;;;5049942;28;20454;-66
2021/10/20 10:55:36;;;;;;;4.13;3.07;;;23.60;97.10;;;;;;5049732;28;20479;-67
2021/10/20 10:58:04;;;;;;;5.47;2.80;;;23.90;96.50;;;;;;5049817;28;20454;-66
2021/10/20 11:00:56;;;;;;;4.90;3.00;;;23.50;96.40;;;;;;5050040;28;20491;-66
2021/10/20 11:03:27;;;;;;;6.23;2.83;;;23.00;96.90;;;;;;5034676;28;20847;-67
2021/10/20 11:05:57;;;;;;;6.87;2.73;;;22.90;97.10;;;;;;5049918;28;20448;-66
2021/10/20 11:08:25;;;;;;;5.27;2.77;;;22.50;98.30;;;;;;5049622;28;20448;-66
2021/10/20 11:10:53;;;;;;;5.00;3.10;;;22.20;98.10;;;;;;5049543;28;20450;-66
2021/10/20 11:13:20;;;;;;;4.70;2.37;;;22.50;98.20;;;;;;5050119;28;20436;-66
2021/10/20 11:15:48;;;;;;;4.10;2.70;;;23.40;97.90;;;;;;5050054;28;20439;-67
2021/10/20 11:18:18;;;;;;;3.93;2.50;;;24.10;96.10;;;;;;5049283;28;20448;-67
2021/10/20 11:20:46;;;;;;;4.07;2.30;;;24.80;96.40;;;;;;5049585;28;20563;-67
2021/10/20 11:23:15;;;;;;;3.80;2.87;;;25.10;95.20;;;;;;5049565;28;20950;-66
2021/10/20 11:25:46;;;;;;;6.50;2.80;;;25.80;94.60;;;;;;5049547;28;20466;-66
2021/10/20 11:28:13;;;;;;;3.40;2.70;;;26.10;93.50;;;;;;5049617;28;20543;-66
2021/10/20 11:30:41;;;;;;;5.33;2.50;;;26.30;92.10;;;;;;5049825;28;20811;-67
2021/10/20 11:33:11;;;;;;;4.67;2.83;;;26.80;91.90;;;;;;5049923;28;20447;-67
2021/10/20 11:35:39;;;;;;;3.37;2.20;;;26.70;91.70;;;;;;5049775;28;20471;-66
2021/10/20 11:38:08;;;;;;;4.80;2.80;;;26.70;91.70;;;;;;5049288;28;20454;-67
2021/10/20 11:40:38;;;;;;;3.30;2.47;;;26.90;91.40;;;;;;5049484;28;20476;-67
2021/10/20 11:43:14;;;;;;;4.03;2.73;;;26.70;91.50;;;;;;5049948;28;20484;-66
2021/10/20 11:45:41;;;;;;;6.30;3.20;;;25.90;92.00;;;;;;5050020;28;21052;-66
2021/10/20 11:48:07;;;;;;;9.03;3.10;;;25.60;93.10;;;;;;5049131;28;20471;-66
2021/10/20 11:50:34;;;;;;;7.40;2.50;;;25.50;93.00;;;;;;5049468;28;20440;-66
2021/10/20 11:53:04;;;;;;;3.93;2.53;;;26.30;92.40;;;;;;5051316;28;20450;-67
2021/10/20 11:55:31;;;;;;;3.63;2.50;;;26.50;91.60;;;;;;5049068;28;20911;-67
2021/10/20 11:57:58;;;;;;;3.00;2.60;;;26.30;92.10;;;;;;5047223;28;20809;-68
2021/10/20 12:00:26;;;;;;;4.27;2.60;;;25.90;91.90;;;;;;5047440;28;20460;-67
2021/10/20 12:02:53;;;;;;;3.30;2.27;;;25.00;92.80;;;;;;5040829;28;20445;-67
2021/10/20 12:05:20;;;;;;;3.63;2.60;;;24.50;93.80;;;;;;5039521;28;20637;-67
2021/10/20 12:07:48;;;;;;;4.27;2.93;;;24.40;94.50;;;;;;5042857;28;20472;-67
2021/10/20 12:10:19;;;;;;;3.93;2.70;;;24.00;94.40;;;;;;5044565;28;20444;-68
2021/10/20 12:12:47;;;;;;;4.50;2.40;;;24.10;94.90;;;;;;5046428;28;20551;-67
2021/10/20 12:15:20;;;;;;;3.77;2.60;;;24.10;95.50;;;;;;5050513;28;20466;-66
2021/10/20 12:17:49;;;;;;;4.03;2.47;;;24.40;94.50;;;;;;5034306;28;20513;-66
2021/10/20 12:20:18;;;;;;;3.77;2.63;;;24.30;95.00;;;;;;5048218;28;20444;-66
2021/10/20 12:22:47;;;;;;;4.10;2.70;;;24.40;94.60;;;;;;5046459;28;20483;-66
2021/10/20 12:25:13;;;;;;;6.07;2.50;;;24.30;94.90;;;;;;5046673;28;20470;-66
2021/10/20 12:27:43;;;;;;;5.33;3.63;;;24.10;94.60;;;;;;5050695;28;20857;-66
2021/10/20 12:30:12;;;;;;;5.00;3.00;;;23.70;95.10;;;;;;5051217;28;20804;-66
2021/10/20 12:32:40;;;;;;;3.03;2.70;;;23.40;95.70;;;;;;5051480;28;20450;-66
2021/10/20 12:35:10;;;;;;;3.27;2.80;;;23.20;96.60;;;;;;5051049;28;20456;-66
2021/10/20 12:37:39;;;;;;;5.33;3.00;;;23.20;96.50;;;;;;5050940;28;20562;-67
2021/10/20 12:40:15;;;;;;;6.03;2.57;;;23.10;96.40;;;;;;5047731;28;20482;-66
2021/10/20 12:42:46;;;;;;;4.90;2.70;;;23.00;96.70;;;;;;5051082;28;20613;-67
2021/10/20 12:45:14;;;;;;;4.57;2.90;;;22.80;97.30;;;;;;5051024;28;20507;-66
2021/10/20 12:47:43;;;;;;;3.50;2.77;;;22.70;97.30;;;;;;5050552;28;20442;-66
2021/10/20 12:50:11;;;;;;;6.23;3.10;;;22.50;98.00;;;;;;5050586;28;20443;-66